sensor_id;sensor_type;location;lat;lon;timestamp;pressure;altitude;pressure_sealevel;temperature;humidity
35649;BME280;21768;48.562;13.414;2023-02-14T00:00:41;99280.47;;;4.06;70.01
35649;BME280;21768;48.562;13.414;2023-02-14T00:03:06;99278.50;;;4.04;70.10
35649;BME280;21768;48.562;13.414;2023-02-14T00:05:31;99280.28;;;4.05;70.28
35649;BME280;21768;48.562;13.414;2023-02-14T00:07:57;99279.41;;;4.04;70.16
35649;BME280;21768;48.562;13.414;2023-02-14T00:10:22;99283.88;;;4.07;69.84
35649;BME280;21768;48.562;13.414;2023-02-14T00:12:48;99287.06;;;4.06;69.92
35649;BME280;21768;48.562;13.414;2023-02-14T00:15:13;99278.31;;;4.02;70.09
35649;BME280;21768;48.562;13.414;2023-02-14T00:17:49;99277.94;;;3.99;69.86
35649;BME280;21768;48.562;13.414;2023-02-14T00:20:15;99283.31;;;3.95;69.83
35649;BME280;21768;48.562;13.414;2023-02-14T00:22:41;99271.53;;;3.94;69.92
35649;BME280;21768;48.562;13.414;2023-02-14T00:25:06;99279.88;;;3.88;69.88
35649;BME280;21768;48.562;13.414;2023-02-14T00:27:31;99279.19;;;3.89;69.95
35649;BME280;21768;48.562;13.414;2023-02-14T00:29:57;99272.22;;;3.86;69.96
35649;BME280;21768;48.562;13.414;2023-02-14T00:32:26;99277.34;;;3.81;70.10
35649;BME280;21768;48.562;13.414;2023-02-14T00:34:52;99280.19;;;3.76;70.04
35649;BME280;21768;48.562;13.414;2023-02-14T00:37:17;99284.78;;;3.73;70.05
35649;BME280;21768;48.562;13.414;2023-02-14T00:39:43;99280.50;;;3.72;69.96
35649;BME280;21768;48.562;13.414;2023-02-14T00:42:08;99276.22;;;3.71;69.97
35649;BME280;21768;48.562;13.414;2023-02-14T00:44:33;99273.56;;;3.70;70.00
35649;BME280;21768;48.562;13.414;2023-02-14T00:46:59;99273.72;;;3.64;69.97
35649;BME280;21768;48.562;13.414;2023-02-14T00:49:24;99273.28;;;3.54;69.93
35649;BME280;21768;48.562;13.414;2023-02-14T00:51:49;99268.63;;;3.50;69.83
35649;BME280;21768;48.562;13.414;2023-02-14T00:54:15;99266.13;;;3.43;70.13
35649;BME280;21768;48.562;13.414;2023-02-14T00:56:40;99276.81;;;3.42;70.23
35649;BME280;21768;48.562;13.414;2023-02-14T00:59:06;99281.09;;;3.43;70.55
35649;BME280;21768;48.562;13.414;2023-02-14T01:01:31;99272.53;;;3.41;70.01
35649;BME280;21768;48.562;13.414;2023-02-14T01:03:57;99279.56;;;3.31;69.94
35649;BME280;21768;48.562;13.414;2023-02-14T01:06:23;99282.69;;;3.16;70.23
35649;BME280;21768;48.562;13.414;2023-02-14T01:08:49;99286.16;;;3.03;70.57
35649;BME280;21768;48.562;13.414;2023-02-14T01:11:19;99277.03;;;2.97;70.57
35649;BME280;21768;48.562;13.414;2023-02-14T01:13:46;99277.31;;;2.86;70.83
35649;BME280;21768;48.562;13.414;2023-02-14T01:16:15;99273.03;;;2.85;70.94
35649;BME280;21768;48.562;13.414;2023-02-14T01:18:41;99273.91;;;2.85;70.85
35649;BME280;21768;48.562;13.414;2023-02-14T01:21:22;99268.53;;;2.82;70.87
35649;BME280;21768;48.562;13.414;2023-02-14T01:23:50;99272.75;;;2.76;70.84
35649;BME280;21768;48.562;13.414;2023-02-14T01:26:18;99270.06;;;2.74;70.75
35649;BME280;21768;48.562;13.414;2023-02-14T01:28:45;99271.47;;;2.72;70.88
35649;BME280;21768;48.562;13.414;2023-02-14T01:31:13;99274.16;;;2.74;70.77
35649;BME280;21768;48.562;13.414;2023-02-14T01:33:39;99268.81;;;2.71;70.79
35649;BME280;21768;48.562;13.414;2023-02-14T01:36:06;99276.63;;;2.67;70.83
35649;BME280;21768;48.562;13.414;2023-02-14T01:38:32;99279.09;;;2.67;70.88
35649;BME280;21768;48.562;13.414;2023-02-14T01:40:57;99279.09;;;2.67;70.90
35649;BME280;21768;48.562;13.414;2023-02-14T01:43:23;99275.91;;;2.68;70.69
35649;BME280;21768;48.562;13.414;2023-02-14T01:45:49;99274.13;;;2.67;70.56
35649;BME280;21768;48.562;13.414;2023-02-14T01:48:16;99274.16;;;2.54;70.94
35649;BME280;21768;48.562;13.414;2023-02-14T01:50:44;99284.25;;;2.49;70.92
35649;BME280;21768;48.562;13.414;2023-02-14T01:53:22;99276.75;;;2.42;71.04
35649;BME280;21768;48.562;13.414;2023-02-14T01:55:52;99282.34;;;2.33;71.17
35649;BME280;21768;48.562;13.414;2023-02-14T01:58:24;99278.88;;;2.26;71.30
35649;BME280;21768;48.562;13.414;2023-02-14T02:00:51;99278.63;;;2.17;71.19
35649;BME280;21768;48.562;13.414;2023-02-14T02:03:28;99279.22;;;2.09;71.54
35649;BME280;21768;48.562;13.414;2023-02-14T02:08:29;99277.16;;;1.99;71.83
35649;BME280;21768;48.562;13.414;2023-02-14T02:10:55;99268.63;;;1.97;71.70
35649;BME280;21768;48.562;13.414;2023-02-14T02:13:21;99264.16;;;1.95;71.88
35649;BME280;21768;48.562;13.414;2023-02-14T02:24:20;99260.38;;;1.91;71.73
35649;BME280;21768;48.562;13.414;2023-02-14T02:32:42;99256.75;;;2.02;71.51
35649;BME280;21768;48.562;13.414;2023-02-14T02:35:58;99260.03;;;2.08;71.25
35649;BME280;21768;48.562;13.414;2023-02-14T02:44:10;99258.56;;;2.23;71.36
35649;BME280;21768;48.562;13.414;2023-02-14T02:58:18;99246.47;;;2.38;71.08
35649;BME280;21768;48.562;13.414;2023-02-14T03:00:45;99251.13;;;2.43;71.16
35649;BME280;21768;48.562;13.414;2023-02-14T03:03:11;99249.03;;;2.46;71.18
35649;BME280;21768;48.562;13.414;2023-02-14T03:05:56;99252.97;;;2.51;70.99
35649;BME280;21768;48.562;13.414;2023-02-14T03:08:22;99246.38;;;2.51;71.10
35649;BME280;21768;48.562;13.414;2023-02-14T03:10:47;99248.16;;;2.52;70.98
35649;BME280;21768;48.562;13.414;2023-02-14T03:27:26;99241.34;;;2.64;71.01
35649;BME280;21768;48.562;13.414;2023-02-14T03:32:36;99238.16;;;2.65;70.91
35649;BME280;21768;48.562;13.414;2023-02-14T03:40:44;99238.56;;;2.75;70.83
35649;BME280;21768;48.562;13.414;2023-02-14T03:43:18;99244.66;;;2.77;70.76
35649;BME280;21768;48.562;13.414;2023-02-14T03:45:48;99241.63;;;2.80;70.77
35649;BME280;21768;48.562;13.414;2023-02-14T03:48:17;99243.25;;;2.79;70.70
35649;BME280;21768;48.562;13.414;2023-02-14T03:50:45;99246.81;;;2.81;71.12
35649;BME280;21768;48.562;13.414;2023-02-14T03:53:14;99249.50;;;2.83;70.95
35649;BME280;21768;48.562;13.414;2023-02-14T03:58:38;99246.69;;;2.87;70.86
35649;BME280;21768;48.562;13.414;2023-02-14T04:01:15;99238.81;;;2.84;70.92
35649;BME280;21768;48.562;13.414;2023-02-14T04:03:43;99239.41;;;2.88;70.83
35649;BME280;21768;48.562;13.414;2023-02-14T04:06:09;99245.16;;;2.94;70.62
35649;BME280;21768;48.562;13.414;2023-02-14T04:08:35;99240.50;;;2.97;70.69
35649;BME280;21768;48.562;13.414;2023-02-14T04:11:01;99248.34;;;2.93;70.67
35649;BME280;21768;48.562;13.414;2023-02-14T04:13:28;99251.75;;;2.94;70.70
35649;BME280;21768;48.562;13.414;2023-02-14T04:15:53;99244.25;;;2.94;70.68
35649;BME280;21768;48.562;13.414;2023-02-14T04:18:19;99260.84;;;3.00;70.41
35649;BME280;21768;48.562;13.414;2023-02-14T04:21:03;99258.34;;;3.00;70.41
35649;BME280;21768;48.562;13.414;2023-02-14T04:23:28;99256.38;;;2.98;70.42
35649;BME280;21768;48.562;13.414;2023-02-14T04:25:54;99248.72;;;2.96;70.43
35649;BME280;21768;48.562;13.414;2023-02-14T04:28:19;99252.94;;;2.90;70.37
35649;BME280;21768;48.562;13.414;2023-02-14T04:30:44;99253.34;;;2.93;70.51
35649;BME280;21768;48.562;13.414;2023-02-14T04:33:10;99246.25;;;2.96;70.34
35649;BME280;21768;48.562;13.414;2023-02-14T04:35:35;99242.84;;;2.96;70.34
35649;BME280;21768;48.562;13.414;2023-02-14T04:38:01;99241.41;;;2.98;70.33
35649;BME280;21768;48.562;13.414;2023-02-14T04:40:28;99240.91;;;3.00;70.32
35649;BME280;21768;48.562;13.414;2023-02-14T04:42:53;99244.09;;;2.99;70.46
35649;BME280;21768;48.562;13.414;2023-02-14T04:45:19;99240.38;;;3.03;70.38
35649;BME280;21768;48.562;13.414;2023-02-14T04:47:44;99241.97;;;3.02;70.40
35649;BME280;21768;48.562;13.414;2023-02-14T04:50:10;99242.69;;;3.01;70.55
35649;BME280;21768;48.562;13.414;2023-02-14T04:52:36;99239.88;;;3.05;70.46
35649;BME280;21768;48.562;13.414;2023-02-14T04:55:02;99235.06;;;3.07;70.33
35649;BME280;21768;48.562;13.414;2023-02-14T04:57:29;99231.31;;;3.03;70.33
35649;BME280;21768;48.562;13.414;2023-02-14T04:59:54;99233.09;;;3.04;70.79
35649;BME280;21768;48.562;13.414;2023-02-14T05:02:19;99234.88;;;3.05;70.22
35649;BME280;21768;48.562;13.414;2023-02-14T05:04:45;99238.47;;;3.07;70.30
35649;BME280;21768;48.562;13.414;2023-02-14T05:07:10;99240.25;;;3.08;70.38
35649;BME280;21768;48.562;13.414;2023-02-14T05:09:36;99238.84;;;3.11;70.37
35649;BME280;21768;48.562;13.414;2023-02-14T05:12:01;99244.53;;;3.10;70.30
35649;BME280;21768;48.562;13.414;2023-02-14T05:14:26;99237.06;;;3.10;70.27
35649;BME280;21768;48.562;13.414;2023-02-14T05:16:52;99239.53;;;3.10;70.30
35649;BME280;21768;48.562;13.414;2023-02-14T05:19:17;99242.94;;;3.10;70.48
35649;BME280;21768;48.562;13.414;2023-02-14T05:21:43;99243.63;;;3.09;70.33
35649;BME280;21768;48.562;13.414;2023-02-14T05:24:08;99244.72;;;3.11;70.43
35649;BME280;21768;48.562;13.414;2023-02-14T05:26:33;99245.44;;;3.10;70.28
35649;BME280;21768;48.562;13.414;2023-02-14T05:28:59;99229.56;;;3.10;70.27
35649;BME280;21768;48.562;13.414;2023-02-14T05:31:24;99227.78;;;3.08;70.59
35649;BME280;21768;48.562;13.414;2023-02-14T05:33:50;99226.00;;;3.07;70.54
35649;BME280;21768;48.562;13.414;2023-02-14T05:36:15;99232.06;;;3.10;70.48
35649;BME280;21768;48.562;13.414;2023-02-14T05:38:41;99235.66;;;3.12;70.51
35649;BME280;21768;48.562;13.414;2023-02-14T05:41:06;99234.75;;;3.11;70.43
35649;BME280;21768;48.562;13.414;2023-02-14T05:43:32;99235.66;;;3.12;70.39
35649;BME280;21768;48.562;13.414;2023-02-14T05:45:57;99232.44;;;3.13;70.53
35649;BME280;21768;48.562;13.414;2023-02-14T05:48:23;99226.75;;;3.14;70.29
35649;BME280;21768;48.562;13.414;2023-02-14T05:50:48;99237.44;;;3.13;70.42
35649;BME280;21768;48.562;13.414;2023-02-14T05:53:14;99233.34;;;3.13;70.49
35649;BME280;21768;48.562;13.414;2023-02-14T05:55:40;99227.84;;;3.16;70.26
35649;BME280;21768;48.562;13.414;2023-02-14T05:58:06;99230.13;;;3.14;70.42
35649;BME280;21768;48.562;13.414;2023-02-14T06:00:32;99238.19;;;3.19;70.63
35649;BME280;21768;48.562;13.414;2023-02-14T06:02:58;99236.03;;;3.22;70.24
35649;BME280;21768;48.562;13.414;2023-02-14T06:05:23;99236.78;;;3.21;70.51
35649;BME280;21768;48.562;13.414;2023-02-14T06:07:49;99246.00;;;3.22;70.52
35649;BME280;21768;48.562;13.414;2023-02-14T06:10:24;99230.00;;;3.20;70.64
35649;BME280;21768;48.562;13.414;2023-02-14T06:12:52;99232.69;;;3.28;70.44
35649;BME280;21768;48.562;13.414;2023-02-14T06:15:17;99235.44;;;3.37;70.33
35649;BME280;21768;48.562;13.414;2023-02-14T06:17:43;99232.94;;;3.37;70.34
35649;BME280;21768;48.562;13.414;2023-02-14T06:20:09;99238.63;;;3.36;70.44
35649;BME280;21768;48.562;13.414;2023-02-14T06:22:36;99230.25;;;3.35;70.24
35649;BME280;21768;48.562;13.414;2023-02-14T06:25:02;99237.97;;;3.44;70.21
35649;BME280;21768;48.562;13.414;2023-02-14T06:27:29;99235.50;;;3.51;70.15
35649;BME280;21768;48.562;13.414;2023-02-14T06:29:54;99234.06;;;3.53;70.12
35649;BME280;21768;48.562;13.414;2023-02-14T06:32:19;99243.72;;;3.57;69.83
35649;BME280;21768;48.562;13.414;2023-02-14T06:34:45;99235.53;;;3.58;69.88
35649;BME280;21768;48.562;13.414;2023-02-14T06:37:10;99244.09;;;3.60;69.88
35649;BME280;21768;48.562;13.414;2023-02-14T06:39:36;99244.47;;;3.63;69.94
35649;BME280;21768;48.562;13.414;2023-02-14T06:42:01;99245.56;;;3.65;69.80
35649;BME280;21768;48.562;13.414;2023-02-14T06:44:26;99247.72;;;3.69;69.88
35649;BME280;21768;48.562;13.414;2023-02-14T06:46:52;99245.56;;;3.72;69.57
35649;BME280;21768;48.562;13.414;2023-02-14T06:49:17;99248.44;;;3.75;69.68
35649;BME280;21768;48.562;13.414;2023-02-14T06:51:42;99242.03;;;3.78;69.46
35649;BME280;21768;48.562;13.414;2023-02-14T06:54:08;99239.34;;;3.76;69.57
35649;BME280;21768;48.562;13.414;2023-02-14T06:56:33;99250.22;;;3.76;69.70
35649;BME280;21768;48.562;13.414;2023-02-14T06:58:58;99243.81;;;3.79;69.57
35649;BME280;21768;48.562;13.414;2023-02-14T07:01:24;99244.38;;;3.83;69.51
35649;BME280;21768;48.562;13.414;2023-02-14T07:03:49;99233.31;;;3.81;69.46
35649;BME280;21768;48.562;13.414;2023-02-14T07:06:15;99237.78;;;3.84;69.47
35649;BME280;21768;48.562;13.414;2023-02-14T07:08:40;99234.38;;;3.83;69.49
35649;BME280;21768;48.562;13.414;2023-02-14T07:11:06;99230.09;;;3.82;69.40
35649;BME280;21768;48.562;13.414;2023-02-14T07:13:32;99232.97;;;3.85;69.04
35649;BME280;21768;48.562;13.414;2023-02-14T07:15:57;99228.16;;;3.87;69.21
35649;BME280;21768;48.562;13.414;2023-02-14T07:18:23;99230.50;;;3.92;69.00
35649;BME280;21768;48.562;13.414;2023-02-14T07:20:51;99225.69;;;3.94;69.12
35649;BME280;21768;48.562;13.414;2023-02-14T07:23:17;99218.53;;;3.97;69.04
35649;BME280;21768;48.562;13.414;2023-02-14T07:25:42;99219.81;;;4.00;68.96
35649;BME280;21768;48.562;13.414;2023-02-14T07:28:08;99218.19;;;4.01;69.06
35649;BME280;21768;48.562;13.414;2023-02-14T07:30:33;99215.38;;;4.05;69.20
35649;BME280;21768;48.562;13.414;2023-02-14T07:32:59;99218.94;;;4.07;68.87
35649;BME280;21768;48.562;13.414;2023-02-14T07:35:24;99227.50;;;4.09;68.96
35649;BME280;21768;48.562;13.414;2023-02-14T07:37:50;99225.88;;;4.02;69.11
35649;BME280;21768;48.562;13.414;2023-02-14T07:40:15;99231.03;;;3.97;69.01
35649;BME280;21768;48.562;13.414;2023-02-14T07:42:42;99228.91;;;3.93;69.25
35649;BME280;21768;48.562;13.414;2023-02-14T07:45:08;99218.91;;;3.93;69.14
35649;BME280;21768;48.562;13.414;2023-02-14T07:47:33;99220.69;;;3.94;69.16
35649;BME280;21768;48.562;13.414;2023-02-14T07:49:59;99224.28;;;3.96;68.89
35649;BME280;21768;48.562;13.414;2023-02-14T07:52:24;99224.63;;;3.92;68.56
35649;BME280;21768;48.562;13.414;2023-02-14T07:54:49;99224.78;;;3.86;68.94
35649;BME280;21768;48.562;13.414;2023-02-14T07:57:15;99226.03;;;3.90;69.17
35649;BME280;21768;48.562;13.414;2023-02-14T07:59:40;99214.81;;;3.93;69.15
35649;BME280;21768;48.562;13.414;2023-02-14T08:02:06;99215.72;;;3.94;69.08
35649;BME280;21768;48.562;13.414;2023-02-14T08:04:31;99220.31;;;3.98;69.05
35649;BME280;21768;48.562;13.414;2023-02-14T08:06:56;99212.50;;;4.02;68.95
35649;BME280;21768;48.562;13.414;2023-02-14T08:09:22;99210.00;;;3.95;68.96
35649;BME280;21768;48.562;13.414;2023-02-14T08:11:54;99208.56;;;3.90;69.25
35649;BME280;21768;48.562;13.414;2023-02-14T08:14:39;99205.00;;;3.95;69.11
35649;BME280;21768;48.562;13.414;2023-02-14T08:17:05;99216.22;;;3.98;68.88
35649;BME280;21768;48.562;13.414;2023-02-14T08:19:32;99211.78;;;4.03;69.06
35649;BME280;21768;48.562;13.414;2023-02-14T08:21:57;99207.69;;;4.03;68.99
35649;BME280;21768;48.562;13.414;2023-02-14T08:24:23;99205.59;;;4.14;68.87
35649;BME280;21768;48.562;13.414;2023-02-14T08:26:48;99215.22;;;4.18;68.92
35649;BME280;21768;48.562;13.414;2023-02-14T08:29:13;99215.03;;;4.16;68.90
35649;BME280;21768;48.562;13.414;2023-02-14T08:31:39;99208.25;;;4.15;69.33
35649;BME280;21768;48.562;13.414;2023-02-14T08:34:05;99204.72;;;4.20;69.03
35649;BME280;21768;48.562;13.414;2023-02-14T08:36:30;99210.75;;;4.15;68.62
35649;BME280;21768;48.562;13.414;2023-02-14T08:38:55;99205.91;;;4.02;68.14
35649;BME280;21768;48.562;13.414;2023-02-14T08:41:22;99209.63;;;3.99;68.71
35649;BME280;21768;48.562;13.414;2023-02-14T08:43:48;99205.75;;;4.08;68.94
35649;BME280;21768;48.562;13.414;2023-02-14T08:46:13;99210.03;;;4.16;68.85
35649;BME280;21768;48.562;13.414;2023-02-14T08:48:41;99201.84;;;4.17;68.92
35649;BME280;21768;48.562;13.414;2023-02-14T08:51:09;99210.56;;;4.21;68.94
35649;BME280;21768;48.562;13.414;2023-02-14T08:53:35;99202.91;;;4.26;68.81
35649;BME280;21768;48.562;13.414;2023-02-14T08:56:05;99197.75;;;4.32;68.68
35649;BME280;21768;48.562;13.414;2023-02-14T08:58:32;99204.53;;;4.33;68.65
35649;BME280;21768;48.562;13.414;2023-02-14T09:00:58;99204.88;;;4.36;68.50
35649;BME280;21768;48.562;13.414;2023-02-14T09:03:23;99206.16;;;4.39;68.46
35649;BME280;21768;48.562;13.414;2023-02-14T09:05:49;99207.22;;;4.41;68.58
35649;BME280;21768;48.562;13.414;2023-02-14T09:08:14;99213.63;;;4.47;68.60
35649;BME280;21768;48.562;13.414;2023-02-14T09:10:40;99212.91;;;4.48;68.39
35649;BME280;21768;48.562;13.414;2023-02-14T09:13:05;99212.19;;;4.49;68.30
35649;BME280;21768;48.562;13.414;2023-02-14T09:15:31;99221.13;;;4.47;68.38
35649;BME280;21768;48.562;13.414;2023-02-14T09:17:56;99214.69;;;4.49;68.25
35649;BME280;21768;48.562;13.414;2023-02-14T09:20:22;99216.84;;;4.45;68.68
35649;BME280;21768;48.562;13.414;2023-02-14T09:22:47;99209.00;;;4.50;68.46
35649;BME280;21768;48.562;13.414;2023-02-14T09:25:13;99214.34;;;4.53;68.24
35649;BME280;21768;48.562;13.414;2023-02-14T09:27:38;99213.28;;;4.58;68.19
35649;BME280;21768;48.562;13.414;2023-02-14T09:30:08;99210.09;;;4.66;68.24
35649;BME280;21768;48.562;13.414;2023-02-14T09:32:33;99217.38;;;4.71;68.00
35649;BME280;21768;48.562;13.414;2023-02-14T09:34:59;99212.22;;;4.70;67.94
35649;BME280;21768;48.562;13.414;2023-02-14T09:37:24;99202.38;;;4.71;67.60
35649;BME280;21768;48.562;13.414;2023-02-14T09:39:50;99210.94;;;4.73;67.40
35649;BME280;21768;48.562;13.414;2023-02-14T09:44:54;99210.06;;;4.73;67.48
35649;BME280;21768;48.562;13.414;2023-02-14T09:50:35;99203.47;;;4.81;67.51
35649;BME280;21768;48.562;13.414;2023-02-14T09:53:29;99204.72;;;4.91;67.34
35649;BME280;21768;48.562;13.414;2023-02-14T09:58:44;99205.38;;;4.97;66.61
35649;BME280;21768;48.562;13.414;2023-02-14T10:01:48;99204.72;;;4.91;67.06
35649;BME280;21768;48.562;13.414;2023-02-14T10:04:37;99198.09;;;4.92;67.14
35649;BME280;21768;48.562;13.414;2023-02-14T10:12:19;99199.50;;;5.04;67.01
35649;BME280;21768;48.562;13.414;2023-02-14T10:14:46;99197.88;;;5.11;66.78
35649;BME280;21768;48.562;13.414;2023-02-14T10:17:55;99192.88;;;5.11;66.63
35649;BME280;21768;48.562;13.414;2023-02-14T10:20:21;99191.44;;;5.13;66.29
35649;BME280;21768;48.562;13.414;2023-02-14T10:23:03;99210.38;;;5.19;66.49
35649;BME280;21768;48.562;13.414;2023-02-14T10:25:43;99203.56;;;5.25;66.25
35649;BME280;21768;48.562;13.414;2023-02-14T10:28:12;99195.16;;;5.24;66.22
35649;BME280;21768;48.562;13.414;2023-02-14T10:30:43;99197.31;;;5.21;66.08
35649;BME280;21768;48.562;13.414;2023-02-14T10:33:18;99184.66;;;5.20;66.25
35649;BME280;21768;48.562;13.414;2023-02-14T10:35:52;99185.91;;;5.16;66.34
35649;BME280;21768;48.562;13.414;2023-02-14T10:46:55;99174.66;;;5.12;66.43
35649;BME280;21768;48.562;13.414;2023-02-14T10:49:34;99174.63;;;5.20;66.11
35649;BME280;21768;48.562;13.414;2023-02-14T10:54:41;99175.31;;;5.26;65.98
35649;BME280;21768;48.562;13.414;2023-02-14T10:57:23;99178.53;;;5.25;65.82
35649;BME280;21768;48.562;13.414;2023-02-14T10:59:58;99172.09;;;5.27;65.94
35649;BME280;21768;48.562;13.414;2023-02-14T11:02:30;99172.25;;;5.28;65.97
35649;BME280;21768;48.562;13.414;2023-02-14T11:04:58;99164.22;;;5.31;65.80
35649;BME280;21768;48.562;13.414;2023-02-14T11:07:24;99165.47;;;5.27;66.07
35649;BME280;21768;48.562;13.414;2023-02-14T11:09:49;99162.78;;;5.33;65.69
35649;BME280;21768;48.562;13.414;2023-02-14T11:12:38;99159.19;;;5.38;65.51
35649;BME280;21768;48.562;13.414;2023-02-14T11:17:39;99162.06;;;5.41;65.59
35649;BME280;21768;48.562;13.414;2023-02-14T11:20:22;99158.09;;;5.43;65.44
35649;BME280;21768;48.562;13.414;2023-02-14T11:22:49;99152.38;;;5.44;65.31
35649;BME280;21768;48.562;13.414;2023-02-14T11:25:25;99152.53;;;5.45;65.62
35649;BME280;21768;48.562;13.414;2023-02-14T11:30:27;99140.91;;;5.46;65.07
35649;BME280;21768;48.562;13.414;2023-02-14T11:32:54;99148.41;;;5.46;65.19
35649;BME280;21768;48.562;13.414;2023-02-14T11:35:23;99140.19;;;5.47;65.01
35649;BME280;21768;48.562;13.414;2023-02-14T11:37:53;99145.16;;;5.54;64.81
35649;BME280;21768;48.562;13.414;2023-02-14T11:40:36;99141.22;;;5.56;64.93
35649;BME280;21768;48.562;13.414;2023-02-14T11:45:42;99135.16;;;5.54;64.47
35649;BME280;21768;48.562;13.414;2023-02-14T11:48:19;99131.97;;;5.48;64.60
35649;BME280;21768;48.562;13.414;2023-02-14T11:50:54;99133.06;;;5.43;64.92
35649;BME280;21768;48.562;13.414;2023-02-14T11:53:24;99132.34;;;5.44;65.05
35649;BME280;21768;48.562;13.414;2023-02-14T11:55:55;99139.44;;;5.55;64.75
35649;BME280;21768;48.562;13.414;2023-02-14T11:58:57;99124.03;;;5.66;64.70
35649;BME280;21768;48.562;13.414;2023-02-14T12:01:31;99114.31;;;5.69;64.30
35649;BME280;21768;48.562;13.414;2023-02-14T12:04:01;99116.81;;;5.69;64.36
35649;BME280;21768;48.562;13.414;2023-02-14T12:06:30;99119.66;;;5.72;64.49
35649;BME280;21768;48.562;13.414;2023-02-14T12:14:21;99113.16;;;5.59;63.69
35649;BME280;21768;48.562;13.414;2023-02-14T12:17:35;99109.41;;;5.55;63.96
35649;BME280;21768;48.562;13.414;2023-02-14T12:19:43;99106.53;;;5.59;64.14
35649;BME280;21768;48.562;13.414;2023-02-14T12:22:18;99097.59;;;5.54;63.90
35649;BME280;21768;48.562;13.414;2023-02-14T12:27:27;99099.94;;;5.53;64.23
35649;BME280;21768;48.562;13.414;2023-02-14T12:30:03;99095.81;;;5.53;64.08
35649;BME280;21768;48.562;13.414;2023-02-14T12:32:32;99090.91;;;5.39;64.14
35649;BME280;21768;48.562;13.414;2023-02-14T12:35:14;99084.81;;;5.44;64.22
35649;BME280;21768;48.562;13.414;2023-02-14T12:37:53;99085.44;;;5.57;63.82
35649;BME280;21768;48.562;13.414;2023-02-14T12:54:32;99063.25;;;5.83;63.52
35649;BME280;21768;48.562;13.414;2023-02-14T13:00:02;99063.94;;;5.66;63.42
35649;BME280;21768;48.562;13.414;2023-02-14T13:16:52;99030.88;;;5.85;63.79
35649;BME280;21768;48.562;13.414;2023-02-14T13:19:36;99030.88;;;5.85;63.69
35649;BME280;21768;48.562;13.414;2023-02-14T13:22:10;99033.38;;;5.85;63.94
35649;BME280;21768;48.562;13.414;2023-02-14T13:25:04;99020.66;;;5.90;63.80
35649;BME280;21768;48.562;13.414;2023-02-14T13:27:32;99022.19;;;5.97;63.60
35649;BME280;21768;48.562;13.414;2023-02-14T13:30:02;99023.25;;;5.99;63.50
35649;BME280;21768;48.562;13.414;2023-02-14T13:32:36;99020.53;;;6.04;63.64
35649;BME280;21768;48.562;13.414;2023-02-14T13:35:03;99015.88;;;6.07;62.86
35649;BME280;21768;48.562;13.414;2023-02-14T13:37:30;99013.19;;;6.06;63.08
35649;BME280;21768;48.562;13.414;2023-02-14T13:40:00;99020.41;;;5.96;62.96
35649;BME280;21768;48.562;13.414;2023-02-14T13:51:08;99021.97;;;5.79;63.13
35649;BME280;21768;48.562;13.414;2023-02-14T13:53:39;99019.84;;;5.75;63.53
35649;BME280;21768;48.562;13.414;2023-02-14T14:19:57;99001.94;;;5.79;63.31
35649;BME280;21768;48.562;13.414;2023-02-14T14:22:24;99002.25;;;5.82;63.41
35649;BME280;21768;48.562;13.414;2023-02-14T14:27:39;99010.66;;;5.90;63.72
35649;BME280;21768;48.562;13.414;2023-02-14T14:30:19;99006.88;;;5.94;63.53
35649;BME280;21768;48.562;13.414;2023-02-14T14:32:47;99001.53;;;5.91;63.63
35649;BME280;21768;48.562;13.414;2023-02-14T14:35:19;99001.69;;;5.92;63.69
35649;BME280;21768;48.562;13.414;2023-02-14T14:37:56;99006.88;;;5.94;63.55
35649;BME280;21768;48.562;13.414;2023-02-14T14:42:52;99006.16;;;5.88;63.52
35649;BME280;21768;48.562;13.414;2023-02-14T14:45:25;99004.03;;;5.84;63.36
35649;BME280;21768;48.562;13.414;2023-02-14T14:47:53;99002.25;;;5.82;63.79
35649;BME280;21768;48.562;13.414;2023-02-14T14:50:23;99001.72;;;5.85;63.81
35649;BME280;21768;48.562;13.414;2023-02-14T14:53:04;99002.97;;;5.89;63.88
35649;BME280;21768;48.562;13.414;2023-02-14T14:55:35;99001.53;;;5.91;63.77
35649;BME280;21768;48.562;13.414;2023-02-14T14:58:03;98999.75;;;5.90;63.75
35649;BME280;21768;48.562;13.414;2023-02-14T15:00:36;98999.38;;;5.87;63.70
35649;BME280;21768;48.562;13.414;2023-02-14T15:05:39;98988.91;;;5.75;63.99
35649;BME280;21768;48.562;13.414;2023-02-14T15:11:07;98984.78;;;5.75;64.04
35649;BME280;21768;48.562;13.414;2023-02-14T15:13:38;98991.41;;;5.75;63.90
35649;BME280;21768;48.562;13.414;2023-02-14T15:19:10;98991.78;;;5.71;64.09
35649;BME280;21768;48.562;13.414;2023-02-14T15:21:40;98987.38;;;5.68;63.91
35649;BME280;21768;48.562;13.414;2023-02-14T15:24:10;98980.63;;;5.60;64.44
35649;BME280;21768;48.562;13.414;2023-02-14T15:26:37;98991.91;;;5.57;64.40
35649;BME280;21768;48.562;13.414;2023-02-14T15:29:05;98983.91;;;5.52;64.39
35649;BME280;21768;48.562;13.414;2023-02-14T15:31:34;98981.44;;;5.45;64.49
35649;BME280;21768;48.562;13.414;2023-02-14T15:34:02;98979.34;;;5.41;64.59
35649;BME280;21768;48.562;13.414;2023-02-14T15:36:31;98980.28;;;5.34;64.63
35649;BME280;21768;48.562;13.414;2023-02-14T15:38:57;98983.31;;;5.32;64.60
35649;BME280;21768;48.562;13.414;2023-02-14T15:41:25;98973.31;;;5.32;64.98
35649;BME280;21768;48.562;13.414;2023-02-14T15:43:52;98981.16;;;5.35;64.95
35649;BME280;21768;48.562;13.414;2023-02-14T15:48:53;98985.78;;;5.39;64.86
35649;BME280;21768;48.562;13.414;2023-02-14T15:51:22;98981.34;;;5.36;64.74
35649;BME280;21768;48.562;13.414;2023-02-14T15:53:52;98975.09;;;5.33;64.80
35649;BME280;21768;48.562;13.414;2023-02-14T15:56:25;98985.16;;;5.26;65.24
35649;BME280;21768;48.562;13.414;2023-02-14T15:58:59;98980.53;;;5.22;65.19
35649;BME280;21768;48.562;13.414;2023-02-14T16:01:26;98978.44;;;5.18;65.20
35649;BME280;21768;48.562;13.414;2023-02-14T16:03:54;98982.75;;;5.11;65.53
35649;BME280;21768;48.562;13.414;2023-02-14T16:08:59;98980.63;;;5.07;65.60
35649;BME280;21768;48.562;13.414;2023-02-14T16:11:34;98981.72;;;5.02;65.58